Time;durP1;ratioP1;P1;durP2;ratioP2;P2;SDS_P1;SDS_P2;PMS_P1;PMS_P2;Temp;Humidity;BMP_temperature;BMP_pressure;BME280_temperature;BME280_humidity;BME280_pressure;Samples;Min_cycle;Max_cycle;Signal;HPM_P1;HPM_P2
2022/10/11 00:00:25;;;;;;;;;7.00;1.33;;;;;14.97;62.71;101991.84;5037828;28;45602;-44
2022/10/11 00:02:53;;;;;;;;;3.00;1.67;;;;;14.97;62.33;101996.34;5037313;28;46452;-41
2022/10/11 00:05:19;;;;;;;;;2.00;1.00;;;;;15.01;62.58;101996.91;5037382;28;45297;-45
2022/10/11 00:07:44;;;;;;;;;3.00;1.00;;;;;15.00;62.13;101996.06;5037127;28;45324;-43
2022/10/11 00:10:09;;;;;;;;;4.67;1.00;;;;;15.05;61.86;102006.34;5037589;28;45163;-44
2022/10/11 00:12:35;;;;;;;;;4.33;3.00;;;;;15.07;61.68;102004.38;5037382;28;45948;-45
2022/10/11 00:15:02;;;;;;;;;3.33;2.67;;;;;15.10;61.69;102006.75;5037193;28;45226;-42
2022/10/11 00:17:27;;;;;;;;;9.67;3.33;;;;;15.11;61.53;102000.41;5037440;28;45475;-42
2022/10/11 00:19:52;;;;;;;;;4.67;2.00;;;;;15.09;61.44;102003.25;5037454;28;45407;-44
2022/10/11 00:22:18;;;;;;;;;4.67;2.33;;;;;15.10;61.30;102007.59;5037243;28;45435;-42
2022/10/11 00:24:43;;;;;;;;;5.33;1.67;;;;;15.08;61.04;102001.53;5037315;28;45415;-43
2022/10/11 00:27:09;;;;;;;;;3.00;1.00;;;;;14.93;61.07;101994.94;5037341;28;45400;-44
2022/10/11 00:29:36;;;;;;;;;2.00;2.00;;;;;15.05;61.11;102003.69;5037069;28;45291;-42
2022/10/11 00:32:03;;;;;;;;;3.67;1.00;;;;;15.02;61.33;102012.00;5037200;28;46097;-42
2022/10/11 00:34:28;;;;;;;;;1.00;1.00;;;;;14.92;60.97;102007.50;5036944;28;45327;-43
2022/10/11 00:36:54;;;;;;;;;8.33;3.00;;;;;14.96;61.01;102016.09;5037403;28;45209;-43
2022/10/11 00:39:19;;;;;;;;;5.00;2.00;;;;;14.93;60.82;102014.56;5037250;28;45429;-42
2022/10/11 00:41:46;;;;;;;;;4.00;2.00;;;;;14.91;60.58;102015.66;5037098;28;45550;-43
2022/10/11 00:44:24;;;;;;;;;3.00;1.67;;;;;14.87;60.75;102011.59;5037082;28;45373;-43
2022/10/11 00:47:17;;;;;;;;;2.33;1.00;;;;;14.84;60.97;102015.41;5037114;28;45276;-43
2022/10/11 00:49:47;;;;;;;;;5.00;1.67;;;;;14.87;60.62;102027.66;5016341;28;45367;-42
2022/10/11 00:52:36;;;;;;;;;8.33;1.00;;;;;14.82;60.75;102033.44;5036939;28;46241;-42
2022/10/11 00:55:10;;;;;;;;;7.00;1.00;;;;;14.77;60.54;102024.16;5040335;28;45481;-45
2022/10/11 00:57:41;;;;;;;;;3.67;2.00;;;;;14.76;60.67;102023.31;5040689;28;45239;-44
2022/10/11 01:00:09;;;;;;;;;5.33;2.00;;;;;14.73;60.70;102032.47;5040124;28;45572;-50
2022/10/11 01:02:35;;;;;;;;;3.00;0.00;;;;;14.60;60.51;102013.19;5040174;28;45446;-44
2022/10/11 01:05:01;;;;;;;;;2.00;1.00;;;;;14.64;60.67;102016.44;5040241;28;45249;-50
2022/10/11 01:07:30;;;;;;;;;5.00;1.67;;;;;14.69;60.57;102028.41;5040304;28;45296;-47
2022/10/11 01:09:58;;;;;;;;;4.00;3.00;;;;;14.71;60.53;102031.78;5040337;28;45345;-43
2022/10/11 01:12:28;;;;;;;;;2.00;1.00;;;;;14.70;60.33;102030.06;5022158;28;45317;-51
2022/10/11 01:15:17;;;;;;;;;2.00;1.00;;;;;14.66;60.37;102028.69;5039939;28;45365;-46
2022/10/11 01:18:02;;;;;;;;;2.33;1.00;;;;;14.68;60.35;102032.06;5040137;28;45225;-48
2022/10/11 01:20:36;;;;;;;;;2.67;0.00;;;;;14.66;60.41;102026.03;5040326;28;45313;-43
2022/10/11 01:23:46;;;;;;;;;3.00;2.00;;;;;14.57;60.21;102020.66;5039918;28;45999;-43
2022/10/11 01:26:14;;;;;;;;;4.00;2.00;;;;;14.56;60.33;102019.81;5039230;28;45508;-52
2022/10/11 01:29:01;;;;;;;;;1.00;1.00;;;;;14.50;60.36;102024.91;5039779;28;45718;-46
2022/10/11 01:31:42;;;;;;;;;6.67;1.00;;;;;14.44;60.53;102026.25;5039915;28;45451;-50
2022/10/11 01:34:16;;;;;;;;;2.00;0.00;;;;;14.38;60.89;102027.66;5039720;28;46162;-52
2022/10/11 01:36:49;;;;;;;;;2.33;1.33;;;;;14.37;60.51;102025.16;5039604;28;45428;-50
2022/10/11 01:39:25;;;;;;;;;0.33;0.00;;;;;14.32;60.67;102030.06;5039601;28;45296;-43
2022/10/11 01:41:56;;;;;;;;;1.33;1.00;;;;;14.30;60.90;102021.34;5040033;28;45341;-44
2022/10/11 01:44:24;;;;;;;;;0.00;0.00;;;;;14.26;61.10;102025.28;5039657;28;46110;-43
2022/10/11 01:46:53;;;;;;;;;5.67;1.33;;;;;14.25;60.96;102021.75;5039601;28;45388;-49
2022/10/11 01:49:18;;;;;;;;;5.00;2.00;;;;;14.24;60.92;102028.06;5039668;28;45507;-41
2022/10/11 01:51:51;;;;;;;;;3.00;1.00;;;;;14.05;60.85;102007.50;5039790;28;45407;-42
2022/10/11 01:54:35;;;;;;;;;4.00;1.00;;;;;14.15;60.92;102029.75;5039256;28;45427;-42
2022/10/11 01:57:28;;;;;;;;;1.67;0.67;;;;;14.11;61.07;102022.97;5039481;28;45323;-42
2022/10/11 02:00:12;;;;;;;;;1.33;1.33;;;;;14.11;60.83;102017.63;5039106;28;45372;-41
2022/10/11 02:02:40;;;;;;;;;0.33;0.00;;;;;14.07;61.28;102029.59;5039813;28;45600;-46
2022/10/11 02:05:08;;;;;;;;;4.00;1.00;;;;;14.05;61.36;102025.38;5038482;28;46150;-42
2022/10/11 02:07:48;;;;;;;;;6.67;3.00;;;;;14.03;61.57;102019.31;5040346;28;45479;-45
2022/10/11 02:10:20;;;;;;;;;3.00;1.00;;;;;14.02;61.48;102031.00;5039821;28;45490;-41
2022/10/11 02:13:23;;;;;;;;;3.00;1.00;;;;;13.99;61.03;102026.78;5040130;28;45276;-42
2022/10/11 02:15:52;;;;;;;;;1.00;1.00;;;;;13.97;61.15;102021.56;5039607;28;45336;-44
2022/10/11 02:18:21;;;;;;;;;3.33;1.00;;;;;13.96;61.16;102025.22;5039085;28;45179;-42
2022/10/11 02:20:49;;;;;;;;;3.00;1.67;;;;;13.85;61.29;102011.94;5039021;28;45300;-44
2022/10/11 02:23:22;;;;;;;;;2.00;2.00;;;;;13.88;61.13;102016.19;5039231;28;45352;-44
2022/10/11 02:25:49;;;;;;;;;3.00;1.67;;;;;13.88;61.24;102017.03;5038671;28;47022;-42
2022/10/11 02:28:22;;;;;;;;;3.33;1.00;;;;;13.87;61.24;102030.56;5038953;28;45417;-44
2022/10/11 02:30:50;;;;;;;;;4.67;2.00;;;;;13.84;61.18;102025.47;5039013;28;45422;-40
2022/10/11 02:33:20;;;;;;;;;1.00;1.00;;;;;13.79;61.24;102025.03;5038990;28;45439;-41
2022/10/11 02:35:52;;;;;;;;;3.33;1.00;;;;;13.76;61.34;102018.13;5038685;28;46210;-42
2022/10/11 02:38:25;;;;;;;;;3.33;1.00;;;;;13.77;60.98;102027.00;5038881;28;45436;-42
2022/10/11 02:40:57;;;;;;;;;7.00;1.00;;;;;13.74;61.29;102030.81;5038741;28;45473;-50
2022/10/11 02:43:40;;;;;;;;;4.33;1.67;;;;;13.75;61.01;102031.66;5038876;28;45365;-49
2022/10/11 02:46:08;;;;;;;;;2.00;1.33;;;;;13.71;61.15;102026.56;5038418;28;47126;-43
2022/10/11 02:48:34;;;;;;;;;2.33;1.00;;;;;13.70;61.18;102029.38;5038580;28;45419;-42
2022/10/11 02:51:01;;;;;;;;;3.33;1.67;;;;;13.65;61.07;102027.13;5038576;28;45467;-50
2022/10/11 02:53:27;;;;;;;;;1.33;1.33;;;;;13.53;61.26;102008.63;5038997;28;45437;-49
2022/10/11 02:55:54;;;;;;;;;1.67;1.67;;;;;13.61;61.07;102022.13;5038118;28;46205;-43
2022/10/11 02:58:20;;;;;;;;;1.67;1.00;;;;;13.57;61.06;102020.72;5038123;28;45173;-42
2022/10/11 03:00:46;;;;;;;;;2.00;1.00;;;;;13.54;61.25;102024.53;5038584;28;45334;-43
2022/10/11 03:03:12;;;;;;;;;4.00;2.33;;;;;13.53;61.30;102024.66;5038583;28;45384;-42
2022/10/11 03:05:40;;;;;;;;;2.00;2.00;;;;;13.43;61.20;102021.94;5038364;28;45459;-43
2022/10/11 03:08:08;;;;;;;;;1.00;1.00;;;;;13.49;61.28;102037.47;5038258;28;45443;-44
2022/10/11 03:10:34;;;;;;;;;2.67;0.67;;;;;13.48;61.22;102031.28;5038219;28;45240;-42
2022/10/11 03:12:59;;;;;;;;;2.00;2.00;;;;;13.47;61.42;102023.38;5038542;28;45460;-42
2022/10/11 03:15:25;;;;;;;;;3.00;1.00;;;;;13.54;61.24;102039.72;5038341;28;46383;-43
2022/10/11 03:17:50;;;;;;;;;2.00;0.67;;;;;13.59;61.24;102035.66;5038184;28;45393;-49
2022/10/11 03:20:15;;;;;;;;;0.33;0.33;;;;;13.61;60.90;102023.00;5038253;28;45228;-43
2022/10/11 03:22:41;;;;;;;;;1.33;0.00;;;;;13.66;60.72;102026.13;5038306;28;45366;-48
2022/10/11 03:25:06;;;;;;;;;1.00;1.00;;;;;13.65;60.83;102024.44;5037831;28;45509;-44
2022/10/11 03:27:32;;;;;;;;;2.00;1.00;;;;;13.70;60.17;102037.41;5037799;28;45311;-43
2022/10/11 03:29:58;;;;;;;;;2.00;2.00;;;;;13.71;60.39;102034.56;5038139;28;45320;-51
2022/10/11 03:32:24;;;;;;;;;1.67;1.67;;;;;13.73;60.31;102037.94;5038230;28;45515;-42
2022/10/11 03:34:49;;;;;;;;;1.00;1.00;;;;;13.77;59.93;102043.03;5037784;28;46252;-42
2022/10/11 03:37:14;;;;;;;;;0.00;0.00;;;;;13.77;60.17;102045.72;5037928;28;45417;-44
2022/10/11 03:39:40;;;;;;;;;1.33;1.00;;;;;13.77;60.13;102043.88;5037833;28;45948;-44
2022/10/11 03:42:06;;;;;;;;;4.00;2.33;;;;;13.36;59.78;101978.03;5038069;28;45392;-52
2022/10/11 03:44:31;;;;;;;;;0.33;0.33;;;;;13.78;60.36;102040.25;5037842;28;45390;-42
2022/10/11 03:46:56;;;;;;;;;1.00;1.00;;;;;13.77;59.63;102043.03;5036689;28;45427;-45
2022/10/11 03:49:22;;;;;;;;;0.67;0.67;;;;;13.77;59.80;102045.72;5038057;28;45324;-44
2022/10/11 03:51:47;;;;;;;;;1.00;1.00;;;;;13.74;59.78;102049.53;5037862;28;45168;-42
2022/10/11 03:54:13;;;;;;;;;3.00;2.00;;;;;13.73;59.91;102050.47;5037285;28;45326;-51
2022/10/11 03:56:38;;;;;;;;;1.33;1.33;;;;;13.76;59.73;102046.69;5037429;28;45764;-43
2022/10/11 03:59:03;;;;;;;;;6.00;2.33;;;;;13.75;59.52;102053.88;5037549;28;45171;-43
2022/10/11 04:01:29;;;;;;;;;2.00;0.67;;;;;13.71;59.54;102042.59;5037873;28;45325;-50
2022/10/11 04:03:56;;;;;;;;;2.00;1.00;;;;;13.75;59.63;102051.19;5037151;28;46236;-49
2022/10/11 04:06:22;;;;;;;;;0.67;0.67;;;;;13.76;59.28;102050.22;5037277;28;45236;-50
2022/10/11 04:08:47;;;;;;;;;3.00;1.00;;;;;13.76;59.42;102049.38;5037421;28;45425;-53
2022/10/11 04:11:13;;;;;;;;;3.33;3.00;;;;;13.72;59.37;102052.31;5037405;28;45334;-48
2022/10/11 04:13:38;;;;;;;;;3.00;1.00;;;;;13.67;59.16;102038.50;5037286;28;46100;-45
2022/10/11 04:16:04;;;;;;;;;1.00;1.00;;;;;13.70;59.18;102070.34;5037241;28;45413;-42
2022/10/11 04:18:29;;;;;;;;;2.00;0.67;;;;;13.69;59.19;102055.28;5036669;28;45400;-52
2022/10/11 04:20:54;;;;;;;;;1.00;1.00;;;;;13.66;59.30;102063.56;5037522;28;45277;-49
2022/10/11 04:23:20;;;;;;;;;1.00;1.00;;;;;13.66;59.26;102068.06;5037171;28;47050;-48
2022/10/11 04:25:47;;;;;;;;;3.00;1.00;;;;;13.21;58.81;101991.72;5037179;28;45388;-51
2022/10/11 04:28:12;;;;;;;;;1.00;1.00;;;;;13.61;59.03;102062.25;5036751;28;45415;-45
2022/10/11 04:30:37;;;;;;;;;2.00;2.00;;;;;13.52;59.12;102055.03;5037245;28;45356;-45
2022/10/11 04:33:03;;;;;;;;;0.67;0.67;;;;;13.46;58.99;102057.28;5037086;28;46413;-48
2022/10/11 04:35:28;;;;;;;;;0.00;0.00;;;;;13.44;59.41;102072.63;5036943;28;45350;-44
2022/10/11 04:37:53;;;;;;;;;2.33;0.33;;;;;13.39;59.08;102068.63;5037084;28;45694;-42
2022/10/11 04:40:19;;;;;;;;;1.00;1.00;;;;;13.33;59.23;102080.69;5037191;28;45315;-51
2022/10/11 04:42:44;;;;;;;;;4.67;2.00;;;;;13.29;59.40;102071.25;5036657;28;46247;-49
2022/10/11 04:45:10;;;;;;;;;3.00;1.00;;;;;13.23;59.60;102069.97;5036952;28;45285;-45
2022/10/11 04:47:35;;;;;;;;;2.00;1.00;;;;;13.18;59.21;102066.78;5036715;28;45427;-44
2022/10/11 04:50:00;;;;;;;;;4.00;2.00;;;;;13.14;59.54;102064.50;5037140;28;45308;-42
2022/10/11 04:52:26;;;;;;;;;3.00;0.00;;;;;13.07;59.85;102058.84;5035988;28;45325;-44
2022/10/11 04:54:51;;;;;;;;;3.00;1.00;;;;;13.05;59.83;102073.31;5036627;28;45303;-47
2022/10/11 04:57:17;;;;;;;;;4.00;2.00;;;;;13.00;59.69;102068.38;5036835;28;45341;-45
2022/10/11 04:59:42;;;;;;;;;1.00;1.00;;;;;12.95;60.20;102071.44;5036939;28;45246;-46
2022/10/11 05:02:07;;;;;;;;;2.00;0.33;;;;;12.91;59.70;102069.16;5036744;28;46011;-42
2022/10/11 05:04:33;;;;;;;;;2.00;1.00;;;;;12.88;59.89;102072.06;5036691;28;45411;-44
2022/10/11 05:06:58;;;;;;;;;2.67;2.00;;;;;12.85;60.15;102075.00;5037377;28;45430;-47
2022/10/11 05:09:23;;;;;;;;;1.00;1.00;;;;;12.80;60.02;102077.19;5037390;28;45386;-47
2022/10/11 05:11:49;;;;;;;;;2.00;2.00;;;;;12.78;60.19;102073.81;5036771;28;45477;-45
2022/10/11 05:14:14;;;;;;;;;1.33;0.33;;;;;12.64;60.35;102061.59;5036743;28;45459;-50
2022/10/11 05:16:40;;;;;;;;;2.00;2.00;;;;;12.72;60.58;102083.19;5036893;28;45756;-55
2022/10/11 05:19:05;;;;;;;;;2.67;1.00;;;;;12.71;60.36;102077.00;5038035;28;45440;-48
2022/10/11 05:21:31;;;;;;;;;4.00;1.00;;;;;12.55;60.70;102054.38;5037142;28;45349;-46
2022/10/11 05:23:57;;;;;;;;;3.33;1.00;;;;;12.66;60.69;102076.53;5036942;28;45322;-51
2022/10/11 05:26:24;;;;;;;;;1.67;1.00;;;;;12.66;60.99;102076.53;5036587;28;45372;-44
2022/10/11 05:28:51;;;;;;;;;1.00;1.00;;;;;12.66;60.77;102079.22;5035751;28;45240;-46
2022/10/11 05:31:16;;;;;;;;;1.33;1.33;;;;;12.64;61.40;102082.97;5036305;28;45388;-54
2022/10/11 05:33:42;;;;;;;;;0.33;0.33;;;;;12.63;61.00;102084.78;5036552;28;45467;-52
2022/10/11 05:36:08;;;;;;;;;2.33;1.00;;;;;12.51;61.06;102063.59;5036221;28;45671;-47
2022/10/11 05:38:33;;;;;;;;;3.33;2.00;;;;;12.58;61.17;102075.47;5036762;28;45364;-52
2022/10/11 05:41:01;;;;;;;;;1.00;1.00;;;;;12.60;61.52;102093.06;5039169;28;46100;-50
2022/10/11 05:43:27;;;;;;;;;2.00;2.00;;;;;12.60;60.82;102085.06;5039804;28;45363;-44
2022/10/11 05:45:53;;;;;;;;;1.67;1.67;;;;;12.61;60.94;102089.44;5040143;28;45290;-45
2022/10/11 05:48:19;;;;;;;;;3.00;2.33;;;;;12.58;60.88;102087.00;5039842;28;45380;-44
2022/10/11 05:50:44;;;;;;;;;4.33;1.67;;;;;12.56;61.22;102088.13;5039663;28;46843;-43
2022/10/11 05:53:10;;;;;;;;;3.33;0.33;;;;;12.53;61.05;102086.53;5039650;28;45327;-46
2022/10/11 05:55:36;;;;;;;;;1.33;1.00;;;;;12.51;60.75;102088.47;5039747;28;45345;-44
2022/10/11 05:58:02;;;;;;;;;2.00;2.00;;;;;12.49;60.90;102083.28;5039947;28;45822;-43
2022/10/11 06:00:27;;;;;;;;;4.00;2.00;;;;;12.49;61.28;102088.63;5039403;28;46588;-45
2022/10/11 06:02:52;;;;;;;;;1.00;1.00;;;;;12.47;61.19;102081.69;5039664;28;45390;-43
2022/10/11 06:05:18;;;;;;;;;3.00;1.33;;;;;12.46;60.90;102091.53;5039700;28;45488;-43
2022/10/11 06:07:43;;;;;;;;;1.00;0.00;;;;;12.47;61.25;102095.91;5039738;28;45356;-43
2022/10/11 06:10:09;;;;;;;;;2.00;1.00;;;;;12.48;61.12;102096.75;5039210;28;46016;-44
2022/10/11 06:12:34;;;;;;;;;1.00;1.00;;;;;12.48;60.81;102099.44;5039458;28;45477;-44
2022/10/11 06:15:00;;;;;;;;;2.33;2.00;;;;;12.48;60.78;102094.94;5039363;28;45311;-43
2022/10/11 06:17:26;;;;;;;;;6.33;0.67;;;;;12.48;60.73;102099.44;5039503;28;45538;-43
2022/10/11 06:19:51;;;;;;;;;3.33;2.00;;;;;12.47;61.05;102087.03;5038960;28;46181;-42
2022/10/11 06:22:17;;;;;;;;;7.33;2.00;;;;;12.56;60.86;102099.66;5021386;28;45324;-43
2022/10/11 06:24:42;;;;;;;;;7.67;2.00;;;;;12.60;60.90;102105.56;5039277;28;45271;-43
2022/10/11 06:27:08;;;;;;;;;3.00;1.00;;;;;12.62;60.53;102109.81;5039225;28;45446;-42
2022/10/11 06:29:34;;;;;;;;;3.00;2.00;;;;;12.62;59.99;102095.63;5039068;28;46255;-43
2022/10/11 06:31:59;;;;;;;;;6.67;2.00;;;;;12.68;59.96;102105.75;5038892;28;45403;-42
2022/10/11 06:34:25;;;;;;;;;2.67;1.33;;;;;12.76;60.18;102113.16;5039133;28;45336;-43
2022/10/11 06:36:51;;;;;;;;;9.67;2.67;;;;;12.77;59.53;102113.03;5039263;28;45324;-46
2022/10/11 06:39:16;;;;;;;;;1.00;1.00;;;;;12.83;59.64;102114.34;5038842;28;45384;-43
2022/10/11 06:41:42;;;;;;;;;2.33;1.00;;;;;12.86;59.27;102111.41;5038545;28;45324;-46
2022/10/11 06:44:12;;;;;;;;;4.00;2.00;;;;;12.89;59.65;102111.16;5038875;28;45232;-43
2022/10/11 06:46:38;;;;;;;;;1.00;1.00;;;;;12.95;59.44;102113.31;5039039;28;45380;-42
2022/10/11 06:49:04;;;;;;;;;2.00;2.00;;;;;12.96;59.29;102109.66;5038730;28;45828;-43
2022/10/11 06:51:30;;;;;;;;;4.67;3.00;;;;;13.00;59.22;102113.78;5038345;28;45718;-43
2022/10/11 06:53:58;;;;;;;;;6.67;3.00;;;;;13.01;58.90;102112.78;5038844;28;45723;-43
2022/10/11 06:56:28;;;;;;;;;5.00;3.00;;;;;13.06;58.68;102128.44;5038795;28;45452;-43
2022/10/11 06:58:55;;;;;;;;;6.00;2.00;;;;;13.08;58.94;102124.66;5020590;28;46135;-43
2022/10/11 07:01:22;;;;;;;;;4.33;2.33;;;;;13.07;58.68;102122.13;5038338;28;45642;-43
2022/10/11 07:03:49;;;;;;;;;7.00;3.00;;;;;13.11;58.40;102123.56;5038318;28;45231;-41
2022/10/11 07:06:26;;;;;;;;;1.67;1.00;;;;;13.09;58.58;102121.00;5038403;28;45450;-41
2022/10/11 07:08:53;;;;;;;;;1.33;1.33;;;;;13.15;58.24;102125.00;5038089;28;46287;-43
2022/10/11 07:11:21;;;;;;;;;7.67;2.00;;;;;13.20;58.24;102128.97;5038157;28;45250;-44
2022/10/11 07:13:52;;;;;;;;;4.33;2.00;;;;;13.25;57.95;102130.44;5038354;28;45509;-45
2022/10/11 07:16:18;;;;;;;;;3.67;3.00;;;;;13.30;58.38;102138.91;5038453;28;45476;-46
2022/10/11 07:18:44;;;;;;;;;3.00;1.33;;;;;13.34;58.17;102138.50;5038134;28;46323;-43
2022/10/11 07:21:12;;;;;;;;;3.33;2.67;;;;;13.37;57.50;102140.09;5020517;28;45246;-44
2022/10/11 07:23:38;;;;;;;;;1.00;1.00;;;;;13.43;58.03;102139.56;5038153;28;45486;-44
2022/10/11 07:26:04;;;;;;;;;1.67;1.67;;;;;13.47;56.90;102138.31;5038229;28;45508;-46
2022/10/11 07:28:30;;;;;;;;;3.33;2.33;;;;;13.41;56.54;102126.31;5037978;28;45464;-43
2022/10/11 07:30:56;;;;;;;;;4.33;2.00;;;;;13.59;56.48;102150.63;5037838;28;45983;-43
2022/10/11 07:33:22;;;;;;;;;7.00;2.00;;;;;13.63;56.40;102144.03;5038285;28;45309;-44
2022/10/11 07:35:48;;;;;;;;;1.33;1.33;;;;;13.72;56.20;102150.41;5038333;28;45444;-42
2022/10/11 07:38:14;;;;;;;;;2.67;1.67;;;;;13.75;55.80;102155.50;5019826;28;47412;-44
2022/10/11 07:40:42;;;;;;;;;4.00;2.00;;;;;13.70;55.36;102134.50;5037822;28;45387;-44
2022/10/11 07:43:08;;;;;;;;;1.67;1.33;;;;;13.85;55.66;102156.38;5037344;28;45257;-45
2022/10/11 07:45:36;;;;;;;;;3.33;1.00;;;;;13.81;55.48;102146.94;5037937;28;45708;-44
2022/10/11 07:48:02;;;;;;;;;3.00;1.00;;;;;13.97;55.19;102162.50;5037574;28;46449;-44
2022/10/11 07:50:27;;;;;;;;;3.67;2.67;;;;;14.09;55.07;102172.13;5037401;28;45515;-43
2022/10/11 07:52:53;;;;;;;;;2.00;2.00;;;;;14.18;54.62;102170.47;5037909;28;45351;-44
2022/10/11 07:55:18;;;;;;;;;4.00;2.67;;;;;14.28;54.01;102168.66;5037774;28;45177;-44
2022/10/11 07:57:43;;;;;;;;;5.33;2.00;;;;;14.35;54.13;102171.66;5037401;28;45293;-43
2022/10/11 08:00:29;;;;;;;;;3.33;1.00;;;;;14.47;53.56;102178.59;4995682;28;45435;-44
2022/10/11 08:02:55;;;;;;;;;1.00;1.00;;;;;14.55;53.63;102185.97;4994711;28;45395;-43
2022/10/11 08:05:20;;;;;;;;;5.00;3.00;;;;;14.63;53.43;102178.94;4995780;28;45458;-44
2022/10/11 08:07:47;;;;;;;;;1.00;1.00;;;;;14.45;52.99;102130.56;4995391;28;47018;-42
2022/10/11 08:10:14;;;;;;;;;1.33;1.00;;;;;14.82;53.34;102186.16;4995518;28;45450;-44
2022/10/11 08:12:39;;;;;;;;;2.00;2.00;;;;;14.89;52.81;102183.78;4995478;28;45463;-44
2022/10/11 08:15:05;;;;;;;;;3.33;3.33;;;;;15.01;52.47;102184.50;4995738;28;45540;-43
2022/10/11 08:17:31;;;;;;;;;1.67;1.67;;;;;15.08;52.31;102175.72;4995177;28;45470;-42
2022/10/11 08:19:57;;;;;;;;;3.67;1.33;;;;;15.13;52.81;102175.34;4995345;28;45340;-43
2022/10/11 08:22:22;;;;;;;;;4.00;2.33;;;;;15.15;52.67;102178.69;4995468;28;45340;-43
2022/10/11 08:24:48;;;;;;;;;2.00;1.67;;;;;15.26;52.12;102185.78;4979208;28;45372;-43
2022/10/11 08:27:13;;;;;;;;;3.00;2.33;;;;;15.54;51.56;102190.22;4995336;28;46319;-47
2022/10/11 08:29:39;;;;;;;;;4.00;3.00;;;;;16.42;50.11;102191.63;4995692;28;45310;-43
2022/10/11 08:32:04;;;;;;;;;3.33;2.00;;;;;17.91;47.68;102192.88;4995352;28;45230;-44
2022/10/11 08:34:29;;;;;;;;;1.67;1.67;;;;;19.15;44.56;102185.84;4993553;28;45600;-42
2022/10/11 08:36:55;;;;;;;;;5.67;3.00;;;;;19.76;43.38;102183.63;5000185;28;46002;-42
2022/10/11 08:39:20;;;;;;;;;4.25;3.00;;;;;20.13;41.86;102182.19;5013218;28;45411;-45
2022/10/11 08:42:08;;;;;;;;;3.00;2.00;;;;;21.56;40.47;102191.59;5018045;28;45370;-44
2022/10/11 08:44:38;;;;;;;;;4.00;3.00;;;;;23.48;37.79;102189.56;4991324;28;45588;-44
2022/10/11 08:47:10;;;;;;;;;2.50;2.50;;;;;24.59;35.86;102179.53;4992370;28;45985;-44
2022/10/11 08:49:37;;;;;;;;;3.60;2.80;;;;;24.56;35.54;102183.50;4992834;28;45511;-42
2022/10/11 08:52:10;;;;;;;;;3.60;2.20;;;;;24.14;36.29;102179.97;4992951;28;45451;-43
2022/10/11 08:54:44;;;;;;;;;3.20;2.60;;;;;23.70;38.32;102176.78;4991886;28;45664;-44
2022/10/11 08:57:15;;;;;;;;;1.80;1.80;;;;;23.40;38.17;102176.97;4991783;28;45446;-44
2022/10/11 08:59:45;;;;;;;;;2.00;2.00;;;;;23.31;37.61;102178.97;4992342;28;45433;-44
2022/10/11 09:02:18;;;;;;;;;1.40;1.40;;;;;23.41;37.28;102184.06;4990362;28;45523;-44
2022/10/11 09:04:48;;;;;;;;;2.40;2.00;;;;;23.68;36.26;102192.44;4990015;28;45523;-46
2022/10/11 09:07:25;;;;;;;;;2.60;2.60;;;;;23.73;35.88;102184.56;4988835;28;46495;-45
2022/10/11 09:09:56;;;;;;;;;2.80;2.00;;;;;24.03;36.05;102191.41;4988279;28;45454;-47
2022/10/11 09:12:56;;;;;;;;;4.60;2.60;;;;;24.79;34.60;102187.75;4990503;28;45495;-46
2022/10/11 09:15:39;;;;;;;;;3.60;3.00;;;;;26.02;33.38;102188.19;4993390;28;45969;-42
2022/10/11 09:18:39;;;;;;;;;1.00;1.00;;;;;26.99;30.97;102191.72;4993212;28;47119;-43
2022/10/11 09:21:26;;;;;;;;;5.60;3.00;;;;;27.81;29.51;102187.94;4994137;28;45543;-44
2022/10/11 09:24:00;;;;;;;;;5.20;3.00;;;;;28.84;28.33;102187.03;5010996;28;46593;-42
2022/10/11 09:27:03;;;;;;;;;2.00;2.00;;;;;29.60;28.48;102187.31;5015517;28;45495;-43
2022/10/11 09:30:00;;;;;;;;;1.00;0.80;;;;;30.11;27.41;102177.47;5013293;28;46748;-45
2022/10/11 09:32:32;;;;;;;;;4.40;1.80;;;;;30.60;26.61;102174.34;5015275;28;45526;-43
2022/10/11 09:35:09;;;;;;;;;3.80;2.80;;;;;30.84;26.59;102156.66;5015342;28;45472;-42
2022/10/11 09:37:44;;;;;;;;;4.60;3.40;;;;;31.22;26.11;102174.34;5014127;28;45657;-43
2022/10/11 09:40:21;;;;;;;;;3.60;1.80;;;;;31.55;25.35;102177.06;5013323;28;46435;-43
2022/10/11 09:42:46;;;;;;;;;3.40;3.40;;;;;32.05;25.65;102178.06;5014859;28;45494;-44
2022/10/11 09:45:20;;;;;;;;;5.00;3.25;;;;;32.29;24.65;102178.63;5014778;28;45598;-43
2022/10/11 09:47:47;;;;;;;;;7.80;2.80;;;;;32.65;23.89;102173.53;5015382;28;45476;-43
2022/10/11 09:50:16;;;;;;;;;4.80;2.40;;;;;32.81;23.12;102166.25;5014890;28;47054;-42
2022/10/11 09:53:07;;;;;;;;;5.80;2.60;;;;;33.18;23.56;102174.59;5014112;28;45376;-43
2022/10/11 09:55:35;;;;;;;;;4.20;2.60;;;;;33.39;22.45;102168.13;5023483;28;45531;-42
2022/10/11 09:58:03;;;;;;;;;6.00;3.80;;;;;33.47;23.93;102164.06;5019983;28;45225;-43
2022/10/11 10:00:32;;;;;;;;;5.80;3.80;;;;;33.57;22.87;102157.78;5019483;28;47222;-43
2022/10/11 10:03:01;;;;;;;;;4.00;4.00;;;;;33.54;22.86;102142.56;5019512;28;45416;-45
2022/10/11 10:05:35;;;;;;;;;6.00;3.00;;;;;33.62;23.58;102160.56;5019864;28;45467;-46
2022/10/11 10:08:10;;;;;;;;;5.00;3.00;;;;;33.56;23.52;102154.19;5019606;28;45359;-43
2022/10/11 10:10:47;;;;;;;;;3.20;3.00;;;;;33.56;22.66;102162.47;5019396;28;46181;-44
2022/10/11 10:13:26;;;;;;;;;3.80;3.00;;;;;33.66;23.76;102168.03;5019103;28;45308;-44
2022/10/11 10:15:55;;;;;;;;;5.40;3.00;;;;;33.73;22.10;102154.00;5019588;28;45368;-45
2022/10/11 10:18:28;;;;;;;;;6.60;3.60;;;;;33.70;22.61;102160.88;5019730;28;45364;-45
2022/10/11 10:20:58;;;;;;;;;4.60;2.80;;;;;33.57;22.31;102152.25;5019128;28;45416;-42
2022/10/11 10:23:28;;;;;;;;;4.60;3.00;;;;;33.04;23.21;102146.63;5019174;28;45588;-42
2022/10/11 10:26:11;;;;;;;;;3.60;3.60;;;;;32.23;25.08;102157.63;5018632;28;45323;-43
2022/10/11 10:28:36;;;;;;;;;9.00;2.80;;;;;31.48;24.11;102157.19;5019213;28;45343;-45
2022/10/11 10:31:02;;;;;;;;;4.50;3.00;;;;;30.95;25.42;102164.00;5019040;28;46115;-43
2022/10/11 10:33:33;;;;;;;;;5.00;4.50;;;;;30.98;29.12;102163.53;5019268;28;45346;-43
2022/10/11 10:36:11;;;;;;;;;4.40;3.60;;;;;30.60;26.11;102157.88;5019221;28;45287;-45
2022/10/11 10:38:46;;;;;;;;;5.00;3.00;;;;;30.23;26.43;102155.50;5019405;28;45225;-43
2022/10/11 10:41:15;;;;;;;;;2.00;2.00;;;;;29.99;26.38;102165.69;5018914;28;47369;-44
2022/10/11 10:43:44;;;;;;;;;2.40;2.40;;;;;29.96;27.45;102157.91;5018880;28;45473;-44
2022/10/11 10:46:24;;;;;;;;;3.40;3.40;;;;;29.98;28.20;102153.88;5019252;28;45367;-45
2022/10/11 10:49:05;;;;;;;;;3.00;3.00;;;;;30.11;26.71;102155.50;5019229;28;45454;-44
2022/10/11 10:51:52;;;;;;;;;4.80;4.60;;;;;30.35;27.36;102156.31;5018649;28;46128;-44
2022/10/11 10:54:29;;;;;;;;;3.20;3.20;;;;;30.86;26.77;102160.00;5024908;28;45414;-44
2022/10/11 10:56:59;;;;;;;;;5.40;3.00;;;;;31.37;26.81;102151.78;5038842;28;45426;-44
2022/10/11 10:59:49;;;;;;;;;4.60;3.00;;;;;32.03;25.86;102153.56;5038834;28;45332;-44
2022/10/11 11:02:51;;;;;;;;;3.00;3.00;;;;;33.63;24.64;102142.91;5038537;28;45637;-44
2022/10/11 11:05:40;;;;;;;;;4.80;2.20;;;;;36.03;22.06;102151.38;5038680;28;45498;-44
2022/10/11 11:08:14;;;;;;;;;3.00;3.00;;;;;37.71;19.12;102150.03;5038805;28;45237;-44
2022/10/11 11:11:04;;;;;;;;;2.00;2.00;;;;;38.99;18.26;102142.66;5038818;28;45220;-44
2022/10/11 11:13:39;;;;;;;;;4.00;2.80;;;;;39.86;17.03;102142.63;5038413;28;46101;-45
2022/10/11 11:16:33;;;;;;;;;4.00;3.40;;;;;40.42;16.97;102146.13;5037912;28;45370;-44
2022/10/11 11:19:27;;;;;;;;;1.20;1.20;;;;;40.96;16.45;102143.41;5038325;28;45357;-43
2022/10/11 11:22:09;;;;;;;;;6.20;3.40;;;;;41.40;16.91;102144.50;5038661;28;45478;-44
2022/10/11 11:25:00;;;;;;;;;7.00;3.60;;;;;41.54;15.77;102136.81;5038237;28;45407;-42
2022/10/11 11:27:55;;;;;;;;;3.80;2.20;;;;;41.79;15.45;102132.44;5038033;28;45353;-43
2022/10/11 11:30:39;;;;;;;;;3.80;2.40;;;;;42.06;15.38;102125.78;5038252;28;45284;-42
2022/10/11 11:33:13;;;;;;;;;2.00;1.20;;;;;42.04;15.86;102128.88;5032473;28;45698;-43
2022/10/11 11:35:47;;;;;;;;;2.00;2.00;;;;;41.84;16.45;102109.97;5033675;28;46345;-43
2022/10/11 11:38:20;;;;;;;;;3.00;3.00;;;;;41.58;16.44;102118.25;5031916;28;45513;-43